Decoded Metar for LFRV (VANNES in FRANCE) (IATA:VNE) | Meteo·Mobile Aviation Weather
aviador You're here:

LFRV Decoded Metar

VANNES in FRANCE
Report Time2018-10-17 05:00:00
UTC Time2018-10-17 05:23:10
Flight Rules lifr LIFR
Wind140° at 02 kt
W.Decomp.*RWY 08: 1.0 kt HW 1.7 kt RCW
RWY 22: 0.4 kt HW 2 kt LCW
W.Rank140° ranks 31
Current wind is below 140° avg. (6.6)
Visibility0450 m
Phenomena:Fog
Clouds:N/A
CeilingNone
Temp09°C (ISA -5)
Dew Point09°C (100% RH)
AAT8.1°C
QNH1018 hPa
Density Alt-180 ft
Elevation445 ft
Report Wrong Elevation
Raw Report
METAR LFRV 170500Z AUTO 14002KT 0450 FG VV/// 09/09 Q1018=

Extra information for LFRV:More info

Metar Taf Metar & Taf Last 4 Metars F.Rules Stats Wind Profile Meteogram Temp Stats Airport Information Weather charts Add Link Nearby VenuesMetar ALERT Operation Metar Decoded Social comments